Terminal Aerodrome Forecast
Issued by NWS

Home | Current Version | Previous Version | Text Only | Print | Product List | Glossary On
Versions: 1 2 3 4 5 6 7 8 9 10 11 12 13 14 15 16 17 18 19 20 21 22 23 24 25 26 27 28 29 30 31
000
FTUS42 KKEY 251741
TAFMTH
TAF
KMTH 251741Z 2518/2618 VRB02KT P6SM SCT025
     FM252200 03006KT P6SM VCSH SCT025
      TEMPO 2522/2524 04010G18KT
     FM260300 VRB03KT P6SM FEW025=

USA.gov is the U.S. government's official web portal to all federal, state and local government web resources and services.